• Join FlightAware (Why Join?)
  • Login
  • US Flag 
05:42PM EDT


 

Airport Tracker/Info


-or-


 

Live Flight TrackerFlight Track Log ✈ CTL61 ✈ 24-Apr-2013 ✈ KCMH - KBLF

Flight Track Log - Related Links

Times and Time Zones

All times are in EDT time to prevent confusion due to time zone crossing. See the CTL61 flight status page for this flight to view local times or setup timezone preferences in your user account.

Time Position Orientation Groundspeed Altitude Reporting Facility
EDT Latitude Longitude Course Direction KTS MPH feet Rate Location/Type
09:21PM 39.9906 -82.9006 175° South 128 147 1,300  Level Indianapolis Center
09:22PM 39.9511 -82.8961 175° South 139 160 2,900 1,320 Climbing Indianapolis Center
09:23PM 39.9183 -82.8842 164° South 137 158 4,100 1,260 Climbing Indianapolis Center
09:24PM 39.9014 -82.8764 161° South 135 155 4,700 1,140 Climbing Indianapolis Center
09:25PM 39.8739 -82.8631 160° South 141 162 5,500 1,080 Climbing Indianapolis Center
09:25PM 39.8647 -82.8581 157° South 138 159 5,800 1,080 Climbing Indianapolis Center
09:26PM 39.8378 -82.8397 152° Southeast 146 168 6,600 960 Climbing Indianapolis Center
09:26PM 39.8278 -82.8328 152° Southeast 146 168 6,800 240 Climbing Indianapolis Center
09:27PM 39.7975 -82.8164 157° South 163 188 6,900 180 Climbing Indianapolis Center
09:27PM 39.7850 -82.8056 146° Southeast 164 189 7,000  Climbing Indianapolis Center
09:27PM 39.7514 -82.7842 154° Southeast 205 236 6,900  Descending Indianapolis Center
09:28PM 39.7356 -82.7706 147° Southeast 193 222 7,000 60 Climbing Indianapolis Center
09:29PM 39.6844 -82.7383 154° Southeast 199 229 7,000  Level Indianapolis Center
09:30PM 39.6353 -82.7053 153° Southeast 198 228 7,000 -60 Level Indianapolis Center
09:31PM 39.5839 -82.6758 156° South 199 229 6,900 -60 Descending Indianapolis Center
09:32PM 39.5317 -82.6436 155° Southeast 204 235 6,900  Level Indianapolis Center
09:33PM 39.4811 -82.6119 154° Southeast 201 231 7,000  Climbing Indianapolis Center
09:34PM 39.4314 -82.5794 153° Southeast 200 230 7,000  Level Indianapolis Center
09:35PM 39.3819 -82.5464 153° Southeast 199 229 7,000  Level Indianapolis Center
09:36PM 39.3317 -82.5111 152° Southeast 202 232 7,000  Level Indianapolis Center
09:37PM 39.2761 -82.4758 154° Southeast 203 234 7,000  Level Indianapolis Center
09:38PM 39.2261 -82.4439 154° Southeast 201 231 7,000  Level Indianapolis Center
09:39PM 39.1761 -82.4108 153° Southeast 201 231 7,100  Climbing Indianapolis Center
09:40PM 39.1261 -82.3767 152° Southeast 203 234 7,000 -60 Descending Indianapolis Center
09:41PM 39.0764 -82.3453 154° Southeast 200 230 7,000  Level Indianapolis Center
09:42PM 39.0281 -82.3111 151° Southeast 199 229 7,000  Level Indianapolis Center
09:43PM 38.9672 -82.2739 155° Southeast 201 231 7,000  Level Indianapolis Center
09:44PM 38.9181 -82.2406 152° Southeast 201 231 7,000  Level Indianapolis Center
09:45PM 38.8678 -82.2081 153° Southeast 203 234 7,000  Level Indianapolis Center
09:46PM 38.8175 -82.1747 153° Southeast 202 232 7,000 -60 Level Indianapolis Center
09:47PM 38.7672 -82.1425 153° Southeast 201 231 6,900 -60 Descending Indianapolis Center
09:48PM 38.7164 -82.1094 153° Southeast 204 235 6,900  Level Indianapolis Center
09:49PM 38.6661 -82.0767 153° Southeast 203 234 6,900  Level Indianapolis Center
09:50PM 38.6164 -82.0442 153° Southeast 201 231 6,900  Level Indianapolis Center
09:51PM 38.5656 -82.0117 153° Southeast 203 234 6,900  Level Indianapolis Center
09:52PM 38.5067 -81.9742 154° Southeast 200 230 6,900  Level Indianapolis Center
09:53PM 38.4572 -81.9422 153° Southeast 200 230 6,900  Level Indianapolis Center
09:54PM 38.4083 -81.9125 155° Southeast 196 226 6,900  Level Indianapolis Center
09:55PM 38.3603 -81.8811 153° Southeast 194 223 6,900  Level Indianapolis Center
09:56PM 38.3125 -81.8494 153° Southeast 194 223 6,900  Level Indianapolis Center
09:58PM 38.2667 -81.8189 152° Southeast 190 219 6,900  Level Indianapolis Center
09:59PM 38.2192 -81.7900 154° Southeast 189 217 6,900  Level Indianapolis Center
10:00PM 38.1722 -81.7594 153° Southeast 189 217 6,900  Level Indianapolis Center
10:01PM 38.1236 -81.7300 155° Southeast 191 220 6,900 60 Level Indianapolis Center
10:02PM 38.0664 -81.6931 153° Southeast 191 220 7,100 60 Climbing Indianapolis Center
10:03PM 38.0186 -81.6625 153° Southeast 192 221 7,100  Level Indianapolis Center
10:04PM 37.9714 -81.6328 154° Southeast 190 219 7,100  Level Indianapolis Center
10:05PM 37.9233 -81.6017 153° Southeast 193 222 7,100  Level Indianapolis Center
10:06PM 37.8758 -81.5703 152° Southeast 193 222 7,100 -60 Level Indianapolis Center
10:07PM 37.8239 -81.5375 154° Southeast 190 219 7,000 -60 Descending Indianapolis Center
10:08PM 37.7767 -81.5089 154° Southeast 189 217 7,000  Level Indianapolis Center
10:09PM 37.7300 -81.4789 153° Southeast 186 214 7,000  Level Indianapolis Center
10:10PM 37.6858 -81.4481 151° Southeast 187 215 7,000  Level Indianapolis Center
10:11PM 37.6422 -81.4142 148° Southeast 189 217 7,000  Level Indianapolis Center
10:12PM 37.6022 -81.3764 143° Southeast 192 221 7,000  Level Indianapolis Center
10:13PM 37.5711 -81.3036 118° Southeast 201 231 7,000  Level Indianapolis Center
10:14PM 37.5411 -81.2481 124° Southeast 196 226 7,000 -360 Level Indianapolis Center
10:15PM 37.5108 -81.1894 123° Southeast 203 234 6,300 -540 Descending Indianapolis Center
10:16PM 37.4772 -81.1361 128° Southeast 201 231 6,000 -240 Descending Indianapolis Center
10:17PM 37.4367 -81.0861 136° Southeast 182 209 5,900 -300 Descending Indianapolis Center
10:18PM 37.3981 -81.0939 189° South 155 178 5,500 -600 Descending Indianapolis Center
10:19PM 37.3647 -81.1317 222° Southwest 151 174 4,800 -840 Descending Indianapolis Center
10:20PM 37.3342 -81.1619 218° Southwest 145 167 3,900 -600 Descending Indianapolis Center
10:21PM 37.3069 -81.1906 220° Southwest 140 161 3,600 -300 Descending Indianapolis Center
10:23PM 37.2833 -81.2000 174° South  Level FlightAware Approximate
10:30PM 37.2958 -81.2077 174° South  Level Estimated